Time;durP1;ratioP1;P1;durP2;ratioP2;P2;SDS_P1;SDS_P2;PMS_P1;PMS_P2;Temp;Humidity;BMP_temperature;BMP_pressure;BME280_temperature;BME280_humidity;BME280_pressure;Samples;Min_cycle;Max_cycle;Signal;HPM_P1;HPM_P2
2022/08/25 00:02:07;;;;;;;5.43;2.80;;;;;;;19.64;67.03;98578.69;5095297;28;20098;-93
2022/08/25 00:04:35;;;;;;;3.95;2.40;;;;;;;19.59;67.02;98567.34;5094832;28;20048;-92
2022/08/25 00:07:01;;;;;;;5.72;2.80;;;;;;;19.63;67.10;98571.59;5096684;28;20060;-94
2022/08/25 00:09:27;;;;;;;4.15;2.80;;;;;;;19.59;67.48;98561.09;5094488;28;20044;-92
2022/08/25 00:11:54;;;;;;;4.13;2.40;;;;;;;19.43;67.74;98553.16;5090985;28;20048;-91
2022/08/25 00:14:25;;;;;;;4.03;2.58;;;;;;;19.53;67.35;98561.50;5101747;28;20032;-92
2022/08/25 00:16:51;;;;;;;4.32;2.42;;;;;;;19.52;67.61;98557.06;5101342;28;20044;-93
2022/08/25 00:19:21;;;;;;;4.63;2.60;;;;;;;19.47;67.48;98554.69;5094034;28;20046;-93
2022/08/25 00:21:47;;;;;;;3.95;2.60;;;;;;;19.42;67.98;98549.59;5093614;28;20040;-92
2022/08/25 00:24:15;;;;;;;4.25;2.70;;;;;;;19.43;68.21;98564.84;5090956;28;20519;-92
2022/08/25 00:26:43;;;;;;;3.88;2.47;;;;;;;19.31;67.93;98535.97;5091679;28;20064;-94
2022/08/25 00:29:10;;;;;;;5.37;2.90;;;;;;;19.48;67.56;98568.06;5095004;28;20478;-91
2022/08/25 00:31:38;;;;;;;3.83;2.60;;;;;;;19.60;66.82;98560.97;5097251;28;20036;-92
2022/08/25 00:34:06;;;;;;;5.80;2.63;;;;;;;19.56;66.99;98555.91;5083369;28;20036;-92
2022/08/25 00:36:33;;;;;;;4.00;2.50;;;;;;;19.54;66.92;98545.25;5082626;28;20280;-93
2022/08/25 00:38:59;;;;;;;4.47;2.88;;;;;;;19.62;66.17;98532.06;5079724;28;20098;-91
2022/08/25 00:41:25;;;;;;;3.95;2.40;;;;;;;19.65;66.08;98531.03;5082806;28;20040;-92
2022/08/25 00:43:55;;;;;;;4.07;2.40;;;;;;;19.76;66.59;98547.38;5077460;28;20537;-91
2022/08/25 00:46:24;;;;;;;4.28;2.67;;;;;;;19.78;66.05;98553.53;5080040;28;20049;-93
2022/08/25 00:48:57;;;;;;;3.85;2.33;;;;;;;19.65;66.46;98537.28;5082061;28;20044;-92
2022/08/25 00:51:29;;;;;;;3.95;2.50;;;;;;;19.69;66.50;98543.31;5078940;28;20044;-91
2022/08/25 00:53:55;;;;;;;4.70;2.75;;;;;;;19.69;66.69;98544.22;5076748;28;20498;-92
2022/08/25 00:56:21;;;;;;;4.53;2.35;;;;;;;19.78;66.24;98556.22;5082702;28;20040;-91
2022/08/25 00:58:48;;;;;;;4.18;2.78;;;;;;;19.79;65.91;98555.25;5083318;28;20047;-92
2022/08/25 01:01:13;;;;;;;6.13;2.72;;;;;;;19.73;66.40;98550.25;5086064;28;20047;-91
2022/08/25 01:03:40;;;;;;;5.60;2.80;;;;;;;19.70;66.53;98548.63;5081478;28;20035;-93
2022/08/25 01:06:10;;;;;;;4.80;2.88;;;;;;;19.63;67.19;98557.25;5080830;28;20072;-90
2022/08/25 01:08:36;;;;;;;4.35;2.65;;;;;;;19.53;67.41;98548.03;5083211;28;20131;-92
2022/08/25 01:11:05;;;;;;;4.45;2.72;;;;;;;19.56;67.70;98558.59;5083676;28;20479;-91
2022/08/25 01:13:36;;;;;;;4.05;2.47;;;;;;;19.53;67.30;98540.78;5085760;28;20100;-93
2022/08/25 01:16:02;;;;;;;4.55;2.47;;;;;;;19.43;67.79;98532.47;5084864;28;20040;-94
2022/08/25 01:18:40;;;;;;;4.10;2.47;;;;;;;19.35;68.51;98542.03;5082707;28;20048;-91
2022/08/25 01:21:08;;;;;;;4.90;2.70;;;;;;;19.33;68.92;98536.75;5084837;28;20182;-94
2022/08/25 01:23:35;;;;;;;4.57;2.70;;;;;;;19.22;69.21;98547.38;5083143;28;20062;-93
2022/08/25 01:26:06;;;;;;;5.30;2.85;;;;;;;19.17;69.49;98552.19;5080265;28;20037;-92
2022/08/25 01:28:32;;;;;;;5.20;2.80;;;;;;;19.06;69.31;98539.41;5077708;28;20126;-92
2022/08/25 01:30:58;;;;;;;5.50;3.28;;;;;;;19.08;69.38;98529.41;5081529;28;20127;-92
2022/08/25 01:33:24;;;;;;;3.95;2.58;;;;;;;19.19;69.21;98547.56;5082943;28;20077;-93
2022/08/25 01:35:50;;;;;;;5.13;3.00;;;;;;;19.24;68.89;98546.31;5087384;28;20036;-93
2022/08/25 01:38:19;;;;;;;6.85;3.15;;;;;;;19.17;69.36;98549.50;5085302;28;20140;-92
2022/08/25 01:40:45;;;;;;;;;;;;;;;19.22;69.36;98564.41;5078732;28;20064;-92
2022/08/25 01:43:20;;;;;;;4.35;2.70;;;;;;;19.19;68.97;98559.25;5081194;28;19970;-94
2022/08/25 01:45:47;;;;;;;5.22;3.00;;;;;;;19.22;68.54;98534.75;5088306;28;20044;-92
2022/08/25 01:48:14;;;;;;;6.65;2.60;;;;;;;19.31;68.20;98537.81;5085728;28;20049;-92
2022/08/25 01:50:41;;;;;;;5.47;2.80;;;;;;;19.49;67.88;98556.31;5079682;28;20473;-93
2022/08/25 01:53:11;;;;;;;5.38;3.05;;;;;;;19.45;68.26;98554.81;5075913;28;20040;-92
2022/08/25 01:58:43;;;;;;;5.10;2.83;;;;;;;19.45;68.02;98546.72;5164956;27;20386;-92
2022/08/25 02:01:14;;;;;;;5.10;3.15;;;;;;;19.55;67.89;98543.41;5130989;28;20397;-93
2022/08/25 02:03:42;;;;;;;5.95;3.20;;;;;;;19.58;67.51;98543.19;5130820;28;20071;-93
2022/08/25 02:06:11;;;;;;;5.95;3.15;;;;;;;19.56;67.79;98539.72;5129829;27;20532;-93
2022/08/25 02:08:37;;;;;;;4.22;2.88;;;;;;;19.52;67.76;98536.38;5132158;27;20046;-93
2022/08/25 02:11:03;;;;;;;5.95;3.17;;;;;;;19.48;67.68;98527.63;5132107;27;20428;-93
2022/08/25 02:13:30;;;;;;;4.68;3.13;;;;;;;19.52;67.18;98517.50;5131955;28;20511;-90
2022/08/25 02:16:00;;;;;;;5.88;3.22;;;;;;;19.61;66.89;98524.97;5131869;27;20092;-91
2022/08/25 02:18:26;;;;;;;5.22;3.33;;;;;;;19.56;66.63;98501.97;5131499;27;20031;-93
2022/08/25 02:20:51;;;;;;;4.85;3.03;;;;;;;19.61;66.65;98516.00;5131704;27;20043;-92
2022/08/25 02:23:17;;;;;;;7.95;3.30;;;;;;;19.68;66.56;98547.00;5131602;27;20118;-93
2022/08/25 02:25:43;;;;;;;5.53;3.15;;;;;;;19.62;67.17;98536.59;5131840;27;20043;-92
2022/08/25 02:28:10;;;;;;;5.22;3.15;;;;;;;19.50;66.51;98517.59;5132180;27;20092;-91
2022/08/25 02:30:37;;;;;;;5.85;3.47;;;;;;;19.48;66.71;98518.69;5131872;27;20126;-93
2022/08/25 02:33:05;;;;;;;6.15;3.30;;;;;;;19.45;67.37;98526.94;5131952;28;20040;-92
2022/08/25 02:35:31;;;;;;;4.80;2.97;;;;;;;19.36;67.71;98520.34;5131902;27;20752;-91
2022/08/25 02:37:57;;;;;;;5.85;3.08;;;;;;;19.31;67.89;98517.09;5131516;28;20058;-92
2022/08/25 02:40:23;;;;;;;5.20;3.03;;;;;;;19.25;68.20;98509.44;5131842;27;20699;-92
2022/08/25 02:42:50;;;;;;;4.95;2.95;;;;;;;19.41;68.17;98533.53;5131604;28;20047;-94
2022/08/25 02:45:17;;;;;;;6.60;3.33;;;;;;;19.37;68.67;98548.19;5131686;28;20046;-92
2022/08/25 02:47:43;;;;;;;6.10;3.20;;;;;;;19.37;68.42;98538.28;5131499;27;20047;-92
2022/08/25 02:50:11;;;;;;;5.30;3.10;;;;;;;19.34;69.04;98543.84;5131563;27;20067;-92
2022/08/25 02:52:38;;;;;;;5.40;3.17;;;;;;;19.46;68.25;98536.78;5131885;27;20601;-93
2022/08/25 02:55:08;;;;;;;6.25;3.20;;;;;;;19.39;68.14;98519.31;5131909;27;20043;-93
2022/08/25 02:57:34;;;;;;;5.93;3.28;;;;;;;19.57;67.69;98538.75;5130909;27;20052;-93
2022/08/25 03:00:00;;;;;;;6.10;3.60;;;;;;;19.64;67.23;98535.53;5131260;27;20035;-92
2022/08/25 03:02:26;;;;;;;5.60;3.00;;;;;;;19.61;67.26;98533.06;5131426;28;20045;-92
2022/08/25 03:04:53;;;;;;;4.95;3.30;;;;;;;19.62;67.42;98534.78;5131500;27;20130;-92
2022/08/25 03:07:21;;;;;;;7.18;3.35;;;;;;;19.50;67.87;98523.00;5131787;27;20093;-91
2022/08/25 03:09:47;;;;;;;5.32;3.20;;;;;;;19.44;68.89;98534.19;5116680;28;20118;-92
2022/08/25 03:12:13;;;;;;;5.18;3.45;;;;;;;19.42;68.55;98524.47;5117728;28;20035;-94
2022/08/25 03:14:39;;;;;;;6.18;3.60;;;;;;;19.29;69.13;98508.25;5117806;28;20028;-95
2022/08/25 03:17:06;;;;;;;7.78;3.70;;;;;;;19.38;69.24;98523.81;5117995;28;20044;-93
2022/08/25 03:19:32;;;;;;;5.20;3.20;;;;;;;19.34;69.58;98506.09;5118316;28;20392;-93
2022/08/25 03:21:58;;;;;;;7.63;3.97;;;;;;;19.21;69.66;98505.19;5119008;28;20434;-92
2022/08/25 03:24:28;;;;;;;;;;;;;;;19.22;70.46;98534.75;5114557;28;20063;-92
2022/08/25 03:26:55;;;;;;;5.03;3.33;;;;;;;18.85;71.84;98514.75;5118106;28;19977;-95
2022/08/25 03:29:22;;;;;;;8.25;3.30;;;;;;;18.87;72.15;98524.47;5116897;28;20562;-94
2022/08/25 03:31:49;;;;;;;6.72;3.70;;;;;;;18.80;72.69;98528.53;5116832;28;20093;-92
2022/08/25 03:34:16;;;;;;;6.22;3.50;;;;;;;18.60;73.23;98505.50;5116836;28;20066;-92
2022/08/25 03:36:43;;;;;;;8.13;4.18;;;;;;;18.66;74.01;98537.44;5116567;28;20397;-92
2022/08/25 03:39:09;;;;;;;6.57;3.75;;;;;;;18.36;74.44;98512.47;5116757;28;20035;-94
2022/08/25 03:41:37;;;;;;;5.80;3.67;;;;;;;18.40;75.25;98530.16;5116822;28;20039;-93
2022/08/25 03:44:05;;;;;;;7.20;3.78;;;;;;;18.29;75.61;98524.59;5116621;28;20047;-94
2022/08/25 03:46:33;;;;;;;5.80;3.53;;;;;;;18.39;75.83;98523.03;5115675;28;20062;-93
2022/08/25 03:49:01;;;;;;;6.90;3.47;;;;;;;18.42;75.25;98526.41;5116454;28;20073;-95
2022/08/25 03:51:30;;;;;;;5.23;3.23;;;;;;;18.44;75.44;98529.00;5116799;28;20044;-93
2022/08/25 03:53:57;;;;;;;6.45;4.00;;;;;;;18.61;75.41;98561.13;5116247;28;20550;-94
2022/08/25 03:56:23;;;;;;;6.22;3.80;;;;;;;18.63;75.53;98553.81;5115253;28;20039;-95
2022/08/25 03:58:50;;;;;;;5.85;3.85;;;;;;;18.65;75.22;98556.38;5113911;28;20040;-93
2022/08/25 04:01:16;;;;;;;5.72;3.70;;;;;;;18.55;75.45;98529.19;5116320;28;20046;-94
2022/08/25 04:03:43;;;;;;;5.72;3.63;;;;;;;18.51;75.62;98532.19;5116332;28;20036;-93
2022/08/25 04:06:09;;;;;;;7.18;4.10;;;;;;;18.52;75.49;98529.41;5116635;28;20031;-94
2022/08/25 04:08:35;;;;;;;6.00;3.20;;;;;;;18.64;75.65;98541.22;5116300;28;20388;-94
2022/08/25 04:11:05;;;;;;;6.70;3.95;;;;;;;18.62;75.44;98545.81;5116094;28;20484;-94
2022/08/25 04:13:31;;;;;;;5.97;3.50;;;;;;;18.56;75.66;98541.69;5116804;28;20126;-93
2022/08/25 04:15:58;;;;;;;5.93;3.58;;;;;;;18.61;75.63;98544.97;5116207;28;20067;-94
2022/08/25 04:18:24;;;;;;;7.53;4.13;;;;;;;18.75;75.32;98551.28;5116208;28;20116;-93
2022/08/25 04:21:00;;;;;;;6.68;4.05;;;;;;;18.77;75.09;98549.38;5115660;28;20068;-93
2022/08/25 04:23:26;;;;;;;6.85;4.10;;;;;;;18.87;74.61;98540.63;5115926;28;20393;-94
2022/08/25 04:25:52;;;;;;;6.90;4.00;;;;;;;18.86;74.34;98538.03;5116343;28;20397;-94
2022/08/25 04:28:18;;;;;;;6.45;3.97;;;;;;;18.88;74.58;98557.66;5117416;28;20545;-93
2022/08/25 04:30:44;;;;;;;7.95;3.97;;;;;;;18.84;74.77;98548.03;5117314;28;20566;-94
2022/08/25 04:33:12;;;;;;;7.00;4.18;;;;;;;18.86;74.62;98556.88;5116691;28;20047;-93
2022/08/25 04:35:40;;;;;;;7.25;4.10;;;;;;;18.77;75.06;98552.06;5116474;27;20130;-93
2022/08/25 04:38:06;;;;;;;9.45;4.35;;;;;;;18.87;74.84;98556.78;5115808;28;20036;-94
2022/08/25 04:40:31;;;;;;;6.55;4.47;;;;;;;18.93;74.34;98544.75;5115676;27;20040;-94
2022/08/25 04:42:58;;;;;;;6.40;4.30;;;;;;;18.94;74.33;98541.09;5115751;28;20038;-95
2022/08/25 04:45:24;;;;;;;6.32;3.95;;;;;;;19.02;73.98;98533.38;5115388;28;20043;-93
2022/08/25 04:47:50;;;;;;;6.15;3.95;;;;;;;19.07;73.50;98539.31;5115682;28;20096;-94
2022/08/25 04:50:17;;;;;;;6.75;4.10;;;;;;;19.09;73.25;98534.69;5115737;28;20035;-93
2022/08/25 04:52:43;;;;;;;5.80;3.65;;;;;;;19.12;73.83;98538.16;5115354;28;20036;-93
2022/08/25 04:55:10;;;;;;;6.82;4.30;;;;;;;19.12;73.47;98528.25;5115402;28;20058;-92
2022/08/25 04:57:36;;;;;;;6.60;4.00;;;;;;;19.09;73.88;98542.78;5115880;28;20043;-93
2022/08/25 05:00:04;;;;;;;6.45;3.78;;;;;;;19.07;74.02;98543.84;5115725;28;20047;-92
2022/08/25 05:02:30;;;;;;;6.40;3.92;;;;;;;19.04;74.30;98534.16;5116231;28;20131;-91
2022/08/25 05:04:56;;;;;;;7.15;4.20;;;;;;;18.96;73.94;98514.91;5117555;28;20059;-95
2022/08/25 05:07:24;;;;;;;6.43;4.00;;;;;;;19.11;74.27;98542.69;5115610;28;20076;-91
2022/08/25 05:09:50;;;;;;;7.45;4.65;;;;;;;19.20;73.71;98543.91;5111863;28;20043;-93
2022/08/25 05:12:16;;;;;;;7.93;4.10;;;;;;;19.17;73.56;98519.84;5115558;28;20099;-94
2022/08/25 05:14:42;;;;;;;6.78;4.20;;;;;;;19.21;73.74;98526.75;5115782;28;20397;-93
2022/08/25 05:17:08;;;;;;;6.50;4.00;;;;;;;19.21;74.36;98533.00;5115223;28;20032;-93
2022/08/25 05:19:35;;;;;;;7.05;4.20;;;;;;;19.19;74.83;98536.78;5115375;28;20047;-94
2022/08/25 05:22:01;;;;;;;7.88;4.03;;;;;;;19.10;75.05;98522.09;5115713;28;20119;-93
2022/08/25 05:24:28;;;;;;;7.03;4.35;;;;;;;19.19;75.48;98545.75;5116239;28;20497;-94
2022/08/25 05:26:55;;;;;;;6.13;4.18;;;;;;;19.12;75.69;98516.59;5115577;28;20070;-95
2022/08/25 05:29:21;;;;;;;6.07;4.05;;;;;;;19.22;75.23;98528.50;5115945;28;20055;-94
2022/08/25 05:31:47;;;;;;;8.20;4.65;;;;;;;19.31;74.78;98514.41;5116260;28;20043;-96
2022/08/25 05:34:13;;;;;;;7.05;4.63;;;;;;;19.52;73.33;98524.72;5117668;28;20103;-94
2022/08/25 05:36:42;;;;;;;7.57;4.45;;;;;;;19.61;72.75;98530.34;5117731;28;20122;-93
2022/08/25 05:39:09;;;;;;;7.43;4.20;;;;;;;19.62;73.03;98536.59;5118775;27;20064;-94
2022/08/25 05:41:37;;;;;;;8.38;4.10;;;;;;;19.60;73.59;98525.91;5117678;28;20044;-94
2022/08/25 05:44:03;;;;;;;6.50;4.40;;;;;;;19.76;73.67;98535.72;5117167;28;20122;-91
2022/08/25 05:46:29;;;;;;;7.93;4.45;;;;;;;19.79;73.08;98509.38;5115856;28;20095;-91
2022/08/25 05:48:55;;;;;;;6.80;4.13;;;;;;;20.06;72.58;98533.59;5116125;28;20066;-92
2022/08/25 05:51:21;;;;;;;8.85;4.65;;;;;;;20.23;71.71;98535.13;5115698;28;20035;-91
2022/08/25 05:53:50;;;;;;;6.97;4.50;;;;;;;20.34;71.44;98515.44;5115596;28;20089;-93
2022/08/25 05:56:17;;;;;;;6.68;4.22;;;;;;;20.59;70.52;98528.09;5114987;28;20048;-93
2022/08/25 05:58:45;;;;;;;6.05;4.05;;;;;;;20.62;70.30;98527.00;5115415;28;20040;-92
2022/08/25 06:04:05;;;;;;;8.10;4.50;;;;;;;20.97;69.75;98543.38;5115130;28;20047;-92
2022/08/25 06:06:31;;;;;;;8.25;4.88;;;;;;;21.06;69.34;98548.09;5113483;28;20119;-92
2022/08/25 06:08:57;;;;;;;6.40;4.03;;;;;;;21.21;68.72;98545.22;5114693;28;20132;-91
2022/08/25 06:11:22;;;;;;;6.90;4.10;;;;;;;21.36;68.88;98543.22;5114928;28;20055;-94
2022/08/25 06:13:50;;;;;;;6.90;4.25;;;;;;;21.41;67.89;98531.09;5115721;28;20040;-93
2022/08/25 06:16:17;;;;;;;6.93;4.43;;;;;;;21.53;67.18;98524.78;5115231;28;20119;-92
2022/08/25 06:18:43;;;;;;;7.38;4.50;;;;;;;21.64;67.16;98526.66;5116378;28;20460;-93
2022/08/25 06:21:11;;;;;;;6.30;4.40;;;;;;;21.68;67.25;98528.13;5118317;28;20120;-91
2022/08/25 06:23:37;;;;;;;7.40;4.22;;;;;;;21.83;66.56;98527.94;5118551;28;20493;-94
2022/08/25 06:26:03;;;;;;;6.80;4.20;;;;;;;22.02;65.96;98524.69;5120106;28;20050;-96
2022/08/25 06:28:29;;;;;;;5.72;4.20;;;;;;;22.15;65.46;98511.91;5123094;28;20057;-94
2022/08/25 06:30:59;;;;;;;7.07;4.57;;;;;;;22.24;65.70;98510.34;5122802;28;20048;-93
2022/08/25 06:33:25;;;;;;;6.70;4.22;;;;;;;22.24;65.15;98510.34;5120340;28;20039;-94
2022/08/25 06:35:54;;;;;;;7.53;4.90;;;;;;;22.24;64.39;98508.50;5122229;28;20020;-94
2022/08/25 06:38:22;;;;;;;7.57;4.65;;;;;;;22.51;65.23;98526.22;5120381;28;20045;-94
2022/08/25 06:40:51;;;;;;;6.33;4.33;;;;;;;22.61;63.82;98504.69;5120910;28;20052;-92
2022/08/25 06:43:17;;;;;;;7.97;4.78;;;;;;;22.71;63.43;98524.66;5119538;28;20292;-93
2022/08/25 06:45:43;;;;;;;7.57;4.38;;;;;;;22.80;63.31;98523.03;5123815;28;20046;-92
2022/08/25 06:48:11;;;;;;;7.47;4.85;;;;;;;22.92;62.78;98508.47;5122343;28;20035;-93
2022/08/25 06:50:38;;;;;;;7.32;4.47;;;;;;;23.01;62.27;98542.13;5121063;28;20127;-93
2022/08/25 06:53:05;;;;;;;6.75;4.82;;;;;;;23.00;62.53;98541.28;5127674;28;20040;-93
2022/08/25 06:55:31;;;;;;;6.97;4.75;;;;;;;23.03;62.94;98511.22;5120351;28;20077;-93
2022/08/25 06:57:57;;;;;;;7.80;4.95;;;;;;;23.00;62.45;98521.41;5120596;28;20039;-93
2022/08/25 07:00:23;;;;;;;7.57;4.65;;;;;;;22.97;63.21;98522.53;5120022;28;20071;-93
2022/08/25 07:02:48;;;;;;;6.50;4.55;;;;;;;22.95;63.27;98517.22;5120914;28;20445;-93
2022/08/25 07:05:16;;;;;;;6.65;4.43;;;;;;;23.14;61.76;98516.59;5120435;28;20127;-92
2022/08/25 07:07:45;;;;;;;7.93;4.60;;;;;;;23.10;61.92;98501.56;5120159;28;20488;-92
2022/08/25 07:10:11;;;;;;;7.72;4.82;;;;;;;23.14;63.01;98503.03;5123852;28;20026;-93
2022/08/25 07:12:37;;;;;;;8.65;4.95;;;;;;;23.51;61.28;98504.53;5120997;28;20047;-93
2022/08/25 07:15:04;;;;;;;6.38;4.22;;;;;;;23.77;60.40;98515.91;5119453;28;20028;-93
2022/08/25 07:17:30;;;;;;;7.70;5.30;;;;;;;23.75;60.18;98526.00;5119269;28;20040;-93
2022/08/25 07:19:56;;;;;;;7.47;4.88;;;;;;;23.97;60.12;98525.06;5120183;27;20035;-93
2022/08/25 07:22:23;;;;;;;7.57;4.82;;;;;;;24.17;59.20;98520.59;5121634;27;20039;-93
2022/08/25 07:24:49;;;;;;;12.07;4.93;;;;;;;24.17;58.43;98504.31;5121329;28;20035;-92
2022/08/25 07:27:15;;;;;;;7.45;4.90;;;;;;;24.23;58.68;98502.91;5119928;28;20492;-93
2022/08/25 07:29:41;;;;;;;9.02;5.40;;;;;;;24.36;57.76;98500.84;5117400;28;20092;-91
2022/08/25 07:32:07;;;;;;;9.95;4.60;;;;;;;24.06;58.27;98515.25;5118134;28;20044;-92
2022/08/25 07:37:42;;;;;;;7.68;5.00;;;;;;;24.38;57.63;98526.88;5154683;27;20127;-91
2022/08/25 07:40:10;;;;;;;9.75;4.35;;;;;;;24.37;57.26;98497.13;5153634;27;20078;-95
2022/08/25 07:42:37;;;;;;;8.60;5.10;;;;;;;24.43;57.59;98512.88;5153612;27;20515;-95
2022/08/25 07:45:04;;;;;;;7.35;4.82;;;;;;;24.54;57.41;98498.38;5152985;27;20430;-93
2022/08/25 07:47:30;;;;;;;6.47;4.55;;;;;;;24.80;55.28;98490.59;5153485;27;20035;-95
2022/08/25 07:49:56;;;;;;;7.30;4.68;;;;;;;24.94;55.59;98502.94;5152288;27;20038;-93
2022/08/25 07:52:22;;;;;;;7.80;5.05;;;;;;;24.69;56.51;98497.00;5150692;27;20080;-91
2022/08/25 07:54:52;;;;;;;6.45;4.65;;;;;;;24.86;55.98;98481.88;5151285;27;20039;-92
2022/08/25 07:57:20;;;;;;;6.78;5.00;;;;;;;24.99;55.19;98479.78;5150850;27;20125;-93
2022/08/25 07:59:47;;;;;;;7.57;4.82;;;;;;;25.14;55.50;98488.38;5151791;27;20138;-93
2022/08/25 08:02:13;;;;;;;7.85;5.10;;;;;;;25.15;55.08;98484.66;5152059;27;20042;-91
2022/08/25 08:04:41;;;;;;;7.32;5.03;;;;;;;25.04;54.96;98481.22;5149487;27;20046;-92
2022/08/25 08:07:07;;;;;;;7.03;4.90;;;;;;;25.22;53.72;98482.25;5152298;27;20035;-92
2022/08/25 08:09:32;;;;;;;7.95;5.40;;;;;;;25.31;54.81;98489.59;5151445;27;20050;-92
2022/08/25 08:12:00;;;;;;;7.90;4.80;;;;;;;25.70;53.55;98483.28;5151686;27;20039;-93
2022/08/25 08:14:26;;;;;;;7.97;5.28;;;;;;;25.70;52.62;98486.00;5152043;27;20138;-91
2022/08/25 08:16:52;;;;;;;6.68;4.90;;;;;;;25.70;51.94;98483.28;5151609;27;20121;-92
2022/08/25 08:19:19;;;;;;;8.32;4.88;;;;;;;26.00;52.41;98491.31;5152391;27;20073;-92
2022/08/25 08:21:45;;;;;;;8.23;4.97;;;;;;;25.72;52.71;98484.00;5151507;27;20031;-91
2022/08/25 08:24:11;;;;;;;11.00;5.00;;;;;;;25.91;52.09;98478.56;5152488;27;20079;-95
2022/08/25 08:26:37;;;;;;;8.20;4.80;;;;;;;25.98;52.25;98471.53;5151662;27;20047;-93
2022/08/25 08:29:04;;;;;;;8.65;5.40;;;;;;;25.94;52.21;98491.06;5151282;27;20117;-93
2022/08/25 08:31:30;;;;;;;7.20;4.70;;;;;;;26.16;51.88;98496.16;5151802;27;20518;-93
2022/08/25 08:33:57;;;;;;;9.65;4.88;;;;;;;26.06;51.72;98499.91;5151406;27;20035;-91
2022/08/25 08:36:24;;;;;;;8.90;5.32;;;;;;;26.28;50.70;98487.81;5151020;27;20446;-92
2022/08/25 08:38:50;;;;;;;7.13;4.97;;;;;;;26.53;49.72;98473.50;5151962;27;20038;-93
2022/08/25 08:45:19;;;;;;;6.63;4.28;;;;;;;26.92;48.31;98483.41;5132334;27;20379;-92
2022/08/25 08:47:57;;;;;;;7.97;5.28;;;;;;;27.07;47.55;98470.97;5115449;28;20133;-91
2022/08/25 08:50:30;;;;;;;6.80;4.70;;;;;;;26.71;48.36;98473.59;5120722;28;20043;-91
2022/08/25 08:53:05;;;;;;;7.63;5.05;;;;;;;26.97;46.79;98470.16;5121410;28;20492;-91
2022/08/25 08:55:34;;;;;;;7.68;4.70;;;;;;;27.27;46.76;98466.25;5126823;28;20076;-92
2022/08/25 08:58:04;;;;;;;6.68;4.90;;;;;;;27.38;46.86;98441.44;5124396;27;20211;-92
2022/08/25 09:00:31;;;;;;;6.30;4.53;;;;;;;27.68;46.67;98446.66;5125064;27;20052;-92
2022/08/25 09:03:04;;;;;;;6.53;4.53;;;;;;;27.56;45.20;98446.03;5121458;28;20044;-92
2022/08/25 09:05:46;;;;;;;7.45;4.68;;;;;;;27.30;45.49;98452.28;5118065;28;20048;-92
2022/08/25 09:08:14;;;;;;;7.32;4.50;;;;;;;27.27;45.34;98435.38;5129121;28;20088;-92
2022/08/25 09:10:52;;;;;;;7.07;4.80;;;;;;;26.97;45.77;98445.59;5123177;27;20040;-89
2022/08/25 09:13:26;;;;;;;7.37;4.87;;;;;;;27.30;45.60;98443.22;5124050;28;20354;-92
2022/08/25 09:19:11;;;;;;;8.35;4.70;;;;;;;27.51;44.42;98451.97;5132915;27;20375;-94
2022/08/25 09:21:45;;;;;;;6.45;4.38;;;;;;;27.51;44.74;98441.03;5134053;27;20039;-94
2022/08/25 09:24:40;;;;;;;9.13;5.18;;;;;;;27.84;43.81;98454.97;5132251;27;20130;-91
2022/08/25 09:27:18;;;;;;;7.22;4.80;;;;;;;27.94;44.15;98444.84;5131357;27;20420;-93
2022/08/25 09:29:56;;;;;;;6.95;4.57;;;;;;;28.26;43.54;98444.19;5132737;27;20040;-93
2022/08/25 09:32:21;;;;;;;;;;;;;;;28.34;42.74;98448.84;5126984;28;20040;-93
2022/08/25 09:34:51;;;;;;;6.47;4.53;;;;;;;28.14;42.45;98450.09;5132943;27;19920;-92
2022/08/25 09:37:17;;;;;;;8.32;4.72;;;;;;;28.32;42.90;98433.63;5131381;27;20044;-93
2022/08/25 09:39:43;;;;;;;7.55;4.30;;;;;;;28.57;41.39;98434.63;5133992;27;20523;-92
2022/08/25 09:42:08;;;;;;;6.97;4.47;;;;;;;28.83;41.61;98431.81;5140044;27;20085;-93
2022/08/25 09:44:40;;;;;;;7.80;4.53;;;;;;;29.01;40.58;98416.13;5141019;27;20365;-92
2022/08/25 09:47:18;;;;;;;6.10;4.00;;;;;;;29.19;39.95;98431.59;5134828;27;20063;-92
2022/08/25 09:49:47;;;;;;;6.28;4.40;;;;;;;29.42;40.08;98429.91;5138037;27;20161;-93
2022/08/25 09:52:31;;;;;;;7.28;4.07;;;;;;;29.24;39.21;98437.44;5137765;27;20381;-92
2022/08/25 09:55:01;;;;;;;6.38;4.18;;;;;;;29.35;40.00;98433.53;5138392;27;20122;-92
2022/08/25 09:57:31;;;;;;;7.07;4.32;;;;;;;29.08;39.38;98436.34;5136783;27;20031;-93
2022/08/25 10:00:08;;;;;;;8.57;4.25;;;;;;;28.94;40.04;98427.94;5135285;27;20142;-92
2022/08/25 10:02:34;;;;;;;6.03;4.10;;;;;;;29.19;39.33;98420.63;5134714;27;20373;-93
2022/08/25 10:05:17;;;;;;;7.30;4.72;;;;;;;29.30;39.67;98420.34;5135456;27;20040;-92
2022/08/25 10:07:51;;;;;;;7.85;4.40;;;;;;;29.35;39.23;98408.88;5135832;27;20442;-92
2022/08/25 10:10:26;;;;;;;8.15;4.72;;;;;;;29.43;38.85;98407.00;5139531;27;20087;-94
2022/08/25 10:12:52;;;;;;;7.20;4.30;;;;;;;28.53;40.56;98414.09;5139467;27;20035;-93
2022/08/25 10:15:20;;;;;;;7.32;4.00;;;;;;;28.37;39.54;98410.25;5134634;27;20041;-94
2022/08/25 10:17:46;;;;;;;6.43;3.95;;;;;;;28.69;39.90;98414.16;5143943;27;20426;-92
2022/08/25 10:20:16;;;;;;;7.90;4.28;;;;;;;28.83;38.08;98402.56;5138359;27;20109;-94
2022/08/25 10:22:43;;;;;;;7.90;3.83;;;;;;;28.98;39.53;98411.00;5137927;27;20039;-92
2022/08/25 10:25:13;;;;;;;8.03;4.30;;;;;;;29.14;38.04;98393.75;5135152;27;20443;-93
2022/08/25 10:27:45;;;;;;;6.30;4.30;;;;;;;29.39;39.15;98411.09;5137057;27;20609;-92
2022/08/25 10:30:18;;;;;;;9.20;4.80;;;;;;;29.24;39.01;98394.47;5118103;27;20040;-94
2022/08/25 10:32:59;;;;;;;7.40;4.13;;;;;;;29.34;38.58;98396.19;5117195;28;20057;-92
2022/08/25 10:35:45;;;;;;;6.95;4.28;;;;;;;29.34;38.81;98388.81;5127367;27;20070;-92
2022/08/25 10:38:26;;;;;;;8.60;3.85;;;;;;;29.38;38.18;98384.72;5122251;27;20077;-92
2022/08/25 10:40:59;;;;;;;6.65;4.13;;;;;;;29.52;38.23;98374.13;5120986;27;20080;-94
2022/08/25 10:43:34;;;;;;;6.05;3.92;;;;;;;29.48;37.88;98396.38;5114737;27;20039;-93
2022/08/25 10:46:08;;;;;;;5.80;4.18;;;;;;;29.18;38.27;98400.63;5117373;27;20059;-91
2022/08/25 10:48:49;;;;;;;6.45;4.50;;;;;;;29.03;38.30;98394.91;5115565;28;20043;-93
2022/08/25 10:51:34;;;;;;;6.13;4.18;;;;;;;29.06;38.55;98397.34;5116463;28;20040;-93
2022/08/25 10:54:11;;;;;;;7.90;4.30;;;;;;;28.50;39.18;98403.47;5115992;28;20088;-92
2022/08/25 10:56:42;;;;;;;7.22;4.15;;;;;;;28.62;37.64;98375.66;5116925;27;20039;-94
2022/08/25 10:59:41;;;;;;;5.80;4.10;;;;;;;28.61;38.68;98389.50;5125096;27;20496;-92
2022/08/25 11:02:33;;;;;;;5.60;3.60;;;;;;;28.86;37.13;98371.28;5107992;27;20519;-92
2022/08/25 11:05:05;;;;;;;6.43;3.90;;;;;;;29.12;37.23;98368.44;5114256;27;20035;-92
2022/08/25 11:07:35;;;;;;;6.15;3.63;;;;;;;29.46;38.10;98379.25;5122434;27;20070;-92
2022/08/25 11:10:08;;;;;;;7.88;4.50;;;;;;;29.31;37.92;98375.47;5117320;27;20488;-93
2022/08/25 11:12:40;;;;;;;5.38;3.67;;;;;;;29.15;37.14;98365.38;5122785;27;20846;-92
2022/08/25 11:15:10;;;;;;;6.00;3.90;;;;;;;29.25;37.05;98377.00;5117286;27;20039;-94
2022/08/25 11:17:42;;;;;;;6.78;3.88;;;;;;;29.30;36.71;98349.13;5117748;27;20075;-92
2022/08/25 11:20:16;;;;;;;5.55;3.95;;;;;;;29.30;36.81;98362.81;5121366;27;20068;-95
2022/08/25 11:22:45;;;;;;;5.75;4.00;;;;;;;29.11;37.36;98364.00;5112382;28;20069;-95
2022/08/25 11:25:17;;;;;;;5.78;3.80;;;;;;;29.20;37.00;98341.06;5121895;27;20038;-93
2022/08/25 11:27:52;;;;;;;5.95;3.90;;;;;;;29.55;36.09;98368.28;5119546;27;20065;-92
2022/08/25 11:30:19;;;;;;;6.45;4.13;;;;;;;29.19;36.91;98365.88;5119591;27;20097;-90
2022/08/25 11:32:48;;;;;;;7.38;4.50;;;;;;;29.04;38.50;98368.41;5122939;27;20043;-92
2022/08/25 11:35:17;;;;;;;6.75;4.13;;;;;;;29.19;38.01;98352.19;5115739;27;20381;-94
2022/08/25 11:37:56;;;;;;;7.65;4.80;;;;;;;29.43;37.92;98363.16;5118746;27;20035;-92
2022/08/25 11:40:46;;;;;;;7.60;4.50;;;;;;;29.27;37.54;98360.41;5114969;28;20115;-92
2022/08/25 11:43:33;;;;;;;6.57;4.38;;;;;;;29.39;36.43;98367.25;5115975;27;20392;-92
2022/08/25 11:46:21;;;;;;;6.53;4.57;;;;;;;29.00;37.79;98361.56;5118256;27;20059;-96
2022/08/25 11:48:59;;;;;;;6.50;4.33;;;;;;;28.82;37.14;98354.34;5118241;27;20035;-93
2022/08/25 11:51:31;;;;;;;6.53;3.92;;;;;;;29.21;36.45;98339.19;5117031;28;20568;-96
2022/08/25 11:54:24;;;;;;;7.28;4.82;;;;;;;29.14;37.63;98357.31;5117450;27;20059;-94
2022/08/25 11:56:53;;;;;;;6.47;3.75;;;;;;;29.34;37.14;98344.16;5107119;27;20130;-93
2022/08/25 11:59:54;;;;;;;7.97;4.50;;;;;;;29.66;36.17;98352.34;5130071;27;20153;-90